Hauptseite
METAR-TAF:

METAR-TAF

Flughäfen :

Annecy, Frankreich

Flughafen Annecy

Breite: 45-55-45N, Länge: 006-05-56E, Höhe: 463 m

Beobachtung

Neuester Wetterbericht von vor 32 Minuten, um 22:30 UTC
Wind 4 kt aus Nord/Nordost
Temperatur 14°C
Luftfeuchtigkeit 67%
Luftdruck 1019 hPa
Sichtweite 10 km oder mehr
keine Wolken unter 1500 m und keine Kumulonimbus oder Gewitterwolken

METAR: LFLP 212230Z AUTO 03004KT CAVOK 14/08 Q1019

Zeit: 01:02 (23:02 UTC)

Prognose

Neuester Wetterbericht von vor 9 Stunden und 2 Minuten, um 14:00 UTC
Gültige Prognose vom 21 um 15 UTC bis 22 um 15 UTC
Wind 3 kt aus unterschiedlichen Richtungen
Sichtweite 10 km oder mehr
keine Wolken unter 1500 m und keine Kumulonimbus oder Gewitterwolken
Übergehend zu
vom 22 um 08 UTC bis 22 um 10 UTC
Wind 7 kt aus Südwest

TAF: LFLP 211400Z 2115/2215 VRB03KT CAVOK BECMG 2208/2210 22007KT

Wetterbeobachtungen und Prognosen von mehr als 4000 Flughäfen (METAR und TAF Bericht).

Die verfügbaren Stationen werden durch gelbe und rote Markierungen auf der Karte dargestellt.

Führen Sie die Maus auf sie, um den Namen der Station zu sehen.

Darauf klicken, um die Beobachtung von Wetterbeobachtungen und Prognosen zu sehen.

Um die Karte zu ändern : klicken Sie auf den grünen Tasten mit einem schwarzen Kreuz Zum Vergrößern, auf den grünen Button mit einem Gedankenstrich zu verkleinern, oder auf die grünen Pfeile für benachbarte Karten.


METAR-TAF: